Time;durP1;ratioP1;P1;durP2;ratioP2;P2;SDS_P1;SDS_P2;PMS_P1;PMS_P2;Temp;Humidity;BMP_temperature;BMP_pressure;BME280_temperature;BME280_humidity;BME280_pressure;Samples;Min_cycle;Max_cycle;Signal;HPM_P1;HPM_P2
2021/08/08 00:00:48;;;;;;;;;2.25;1.00;;;;;22.82;46.78;100393.22;5056100;28;49823;-50
2021/08/08 00:03:13;;;;;;;;;2.00;2.00;;;;;22.85;46.62;100400.91;5056290;28;45486;-55
2021/08/08 00:05:39;;;;;;;;;4.25;2.00;;;;;22.81;46.74;100392.34;5056492;28;45393;-47
2021/08/08 00:08:04;;;;;;;;;1.50;1.50;;;;;22.83;46.96;100397.53;5037969;28;48242;-49
2021/08/08 00:10:29;;;;;;;;;4.25;2.00;;;;;22.82;46.44;100401.97;5055889;28;45474;-50
2021/08/08 00:12:55;;;;;;;;;2.00;2.00;;;;;22.82;46.80;100406.44;5056113;28;45399;-47
2021/08/08 00:15:20;;;;;;;;;2.00;2.00;;;;;22.82;46.81;100401.16;5056024;28;45704;-45
2021/08/08 00:17:46;;;;;;;;;1.00;1.00;;;;;22.81;46.79;100410.84;5059704;28;46285;-48
2021/08/08 00:20:12;;;;;;;;;2.75;1.50;;;;;22.80;46.64;100406.53;5059370;28;45248;-45
2021/08/08 00:22:38;;;;;;;;;3.50;3.50;;;;;22.80;46.58;100411.81;5059423;28;45234;-47
2021/08/08 00:25:04;;;;;;;;;3.75;3.00;;;;;22.80;46.78;100405.69;5059595;28;45252;-60
2021/08/08 00:27:30;;;;;;;;;2.25;1.25;;;;;22.81;46.59;100404.75;5059311;28;46231;-53
2021/08/08 00:29:55;;;;;;;;;4.00;2.00;;;;;22.80;46.61;100411.81;5059120;28;45264;-55
2021/08/08 00:32:23;;;;;;;;;2.25;2.00;;;;;22.79;46.45;100406.63;5041203;28;45270;-56
2021/08/08 00:34:48;;;;;;;;;2.50;2.00;;;;;22.79;46.74;100409.28;5059735;28;45560;-52
2021/08/08 00:37:13;;;;;;;;;2.25;1.00;;;;;22.78;46.84;100407.59;5059163;28;46329;-59
2021/08/08 00:39:39;;;;;;;;;3.00;2.00;;;;;22.77;46.95;100409.38;5059024;28;45312;-51
2021/08/08 00:42:04;;;;;;;;;3.50;1.75;;;;;22.78;46.51;100410.25;5059188;28;45355;-57
2021/08/08 00:44:30;;;;;;;;;1.50;1.00;;;;;22.78;46.64;100407.59;5059341;28;45323;-55
2021/08/08 00:46:55;;;;;;;;;2.00;2.00;;;;;22.76;46.73;100404.22;5058778;28;49293;-57
2021/08/08 00:49:20;;;;;;;;;1.25;1.25;;;;;22.77;46.71;100412.00;5059138;28;45247;-49
2021/08/08 00:51:46;;;;;;;;;2.00;2.00;;;;;22.75;46.72;100408.66;5059012;28;45697;-46
2021/08/08 00:54:12;;;;;;;;;2.00;2.00;;;;;22.75;46.71;100413.09;5059206;28;45236;-46
2021/08/08 00:56:38;;;;;;;;;3.00;2.00;;;;;22.76;46.75;100420.06;5058685;28;45430;-45
2021/08/08 00:59:05;;;;;;;;;2.75;2.00;;;;;22.75;46.48;100415.72;5040694;28;45678;-63
2021/08/08 01:01:34;;;;;;;;;2.00;2.00;;;;;22.75;46.48;100424.50;5058912;28;45194;-63
2021/08/08 01:04:00;;;;;;;;;3.00;2.50;;;;;22.75;46.67;100421.88;5059084;28;45449;-57
2021/08/08 01:06:52;;;;;;;;;2.75;2.25;;;;;22.73;46.45;100421.13;5058470;28;45543;-63
2021/08/08 01:09:20;;;;;;;;;2.75;2.75;;;;;22.73;46.71;100421.13;5000361;28;45921;-63
2021/08/08 01:11:46;;;;;;;;;2.25;2.25;;;;;22.72;46.54;100415.94;5058709;28;45341;-64
2021/08/08 01:14:12;;;;;;;;;5.50;2.75;;;;;22.73;46.31;100428.19;5040728;28;45448;-59
2021/08/08 01:16:39;;;;;;;;;4.25;1.00;;;;;22.72;46.59;100418.59;5058330;28;45504;-63
2021/08/08 01:19:09;;;;;;;;;2.00;1.50;;;;;22.72;46.64;100415.94;5058493;28;45331;-59
2021/08/08 01:21:37;;;;;;;;;3.25;2.25;;;;;22.71;46.59;100420.41;5058798;28;45336;-62
2021/08/08 01:24:03;;;;;;;;;4.00;2.00;;;;;22.71;46.55;100420.41;5058796;28;45545;-59
2021/08/08 01:26:32;;;;;;;;;3.25;1.25;;;;;22.70;46.72;100416.91;5057398;28;46247;-50
2021/08/08 01:28:59;;;;;;;;;3.00;2.75;;;;;22.70;46.71;100421.34;5039293;28;45430;-52
2021/08/08 01:31:24;;;;;;;;;3.00;3.00;;;;;22.69;46.58;100424.94;5058539;28;45368;-45
2021/08/08 01:33:50;;;;;;;;;3.50;1.75;;;;;22.67;46.93;100422.41;5058732;28;45741;-49
2021/08/08 01:36:16;;;;;;;;;6.75;3.75;;;;;22.68;46.86;100432.03;5058231;28;46576;-49
2021/08/08 01:39:04;;;;;;;;;2.00;2.00;;;;;22.68;46.85;100433.81;5058278;28;45571;-51
2021/08/08 01:41:38;;;;;;;;;1.75;1.75;;;;;22.66;46.94;100433.94;5058584;28;45398;-46
2021/08/08 01:44:04;;;;;;;;;3.00;3.00;;;;;22.67;46.81;100438.25;5058422;28;45328;-51
2021/08/08 01:46:32;;;;;;;;;3.75;2.00;;;;;22.65;47.06;100434.88;5058102;28;46320;-54
2021/08/08 01:48:59;;;;;;;;;2.75;2.00;;;;;22.66;46.94;100441.00;5058066;28;45661;-49
2021/08/08 01:51:26;;;;;;;;;2.00;2.00;;;;;22.66;46.84;100441.84;5058221;28;45362;-46
2021/08/08 01:53:52;;;;;;;;;2.00;2.00;;;;;22.66;46.69;100435.72;5040514;28;45227;-45
2021/08/08 01:56:17;;;;;;;;;1.75;1.75;;;;;22.66;46.99;100423.38;5057924;28;45313;-53
2021/08/08 01:58:43;;;;;;;;;1.00;1.00;;;;;22.66;47.00;100423.38;5057894;28;45233;-48
2021/08/08 02:01:08;;;;;;;;;2.00;2.00;;;;;22.65;46.83;100428.78;5057960;28;45325;-53
2021/08/08 02:03:35;;;;;;;;;2.00;2.00;;;;;22.65;46.93;100434.88;5058133;28;45233;-50
2021/08/08 02:06:01;;;;;;;;;3.25;3.25;;;;;22.65;47.00;100434.06;5057714;28;46094;-54
2021/08/08 02:08:27;;;;;;;;;3.00;2.50;;;;;22.66;46.81;100430.44;5057642;28;45407;-52
2021/08/08 02:10:52;;;;;;;;;2.00;2.00;;;;;22.65;46.80;100434.06;5058042;28;45385;-57
2021/08/08 02:13:17;;;;;;;;;3.00;2.25;;;;;22.64;46.90;100435.84;5057957;28;45379;-56
2021/08/08 02:15:43;;;;;;;;;1.50;1.25;;;;;22.64;46.69;100435.00;5057268;28;46535;-54
2021/08/08 02:18:08;;;;;;;;;2.25;2.00;;;;;22.64;46.85;100441.13;5057545;28;45390;-52
2021/08/08 02:20:34;;;;;;;;;2.00;2.00;;;;;22.64;46.98;100442.94;5057617;28;45345;-59
2021/08/08 02:22:59;;;;;;;;;3.75;1.25;;;;;22.65;46.91;100444.63;5057698;28;45551;-50
2021/08/08 02:25:24;;;;;;;;;2.00;2.00;;;;;22.64;46.90;100445.56;5057715;28;45312;-55
2021/08/08 02:27:50;;;;;;;;;2.00;1.50;;;;;22.64;46.96;100450.84;5057280;28;45277;-62
2021/08/08 02:30:15;;;;;;;;;1.75;1.75;;;;;22.63;46.89;100450.00;5057518;28;45371;-52
2021/08/08 02:32:40;;;;;;;;;3.50;2.00;;;;;22.64;46.84;100451.69;5057676;28;45300;-52
2021/08/08 02:35:07;;;;;;;;;2.00;2.00;;;;;22.63;47.01;100452.63;5057069;28;46386;-53
2021/08/08 02:37:32;;;;;;;;;1.75;1.75;;;;;22.64;46.67;100456.13;5057251;28;45640;-56
2021/08/08 02:39:57;;;;;;;;;3.00;3.00;;;;;22.62;46.67;100455.38;5057056;28;45261;-50
2021/08/08 02:42:23;;;;;;;;;3.25;2.75;;;;;22.63;46.78;100457.09;5057634;28;45236;-49
2021/08/08 02:44:48;;;;;;;;;2.75;2.50;;;;;22.63;46.86;100454.44;5057197;28;45342;-51
2021/08/08 02:47:14;;;;;;;;;2.50;2.50;;;;;22.58;46.74;100449.47;5057037;28;45271;-58
2021/08/08 02:49:39;;;;;;;;;3.00;3.00;;;;;22.61;46.81;100445.78;5057190;28;45379;-52
2021/08/08 02:52:05;;;;;;;;;4.00;4.00;;;;;22.61;46.84;100453.69;5057340;28;45251;-48
2021/08/08 02:54:30;;;;;;;;;4.00;2.50;;;;;22.62;46.82;100458.88;5056741;28;46138;-49
2021/08/08 02:56:55;;;;;;;;;3.25;1.75;;;;;22.61;46.89;100457.16;5057250;28;45300;-46
2021/08/08 02:59:21;;;;;;;;;3.25;3.25;;;;;22.60;46.99;100454.66;5057055;28;45296;-58
2021/08/08 03:01:46;;;;;;;;;3.50;2.00;;;;;22.60;46.99;100457.28;5057152;28;45625;-53
2021/08/08 03:04:11;;;;;;;;;5.00;2.00;;;;;22.57;46.92;100457.50;5056752;28;46524;-61
2021/08/08 03:06:37;;;;;;;;;2.00;2.00;;;;;22.58;46.85;100456.53;5056826;28;45318;-62
2021/08/08 03:09:02;;;;;;;;;2.50;2.50;;;;;22.59;46.84;100466.16;5056837;28;45327;-59
2021/08/08 03:11:27;;;;;;;;;4.50;3.00;;;;;22.58;46.95;100467.13;5057211;28;45710;-46
2021/08/08 03:13:53;;;;;;;;;3.00;3.00;;;;;22.57;47.02;100463.63;5056887;28;46409;-56
2021/08/08 03:16:18;;;;;;;;;5.25;3.00;;;;;22.56;46.92;100467.22;5056588;28;45433;-58
2021/08/08 03:18:43;;;;;;;;;2.00;2.00;;;;;22.55;46.98;100466.38;5056726;28;45344;-48
2021/08/08 03:21:09;;;;;;;;;5.00;3.75;;;;;22.57;46.94;100473.34;5056891;28;45336;-51
2021/08/08 03:23:35;;;;;;;;;4.00;3.00;;;;;22.57;46.99;100470.69;5056572;28;46290;-51
2021/08/08 03:26:01;;;;;;;;;4.75;3.00;;;;;22.54;46.96;100464.69;5056298;28;45394;-49
2021/08/08 03:28:27;;;;;;;;;2.25;2.25;;;;;22.57;46.76;100468.06;5057005;28;45342;-57
2021/08/08 03:30:52;;;;;;;;;2.50;2.50;;;;;22.54;47.01;100469.97;5056837;28;45316;-53
2021/08/08 03:33:17;;;;;;;;;3.75;3.00;;;;;22.56;46.55;100480.44;5056379;28;46313;-56
2021/08/08 03:35:43;;;;;;;;;2.00;2.00;;;;;22.55;46.99;100476.94;5038176;28;45370;-53
2021/08/08 03:38:08;;;;;;;;;5.50;3.25;;;;;22.54;46.90;100480.53;5056447;28;45450;-60
2021/08/08 03:40:34;;;;;;;;;4.50;3.75;;;;;22.53;46.68;100470.94;5056700;28;45415;-55
2021/08/08 03:43:00;;;;;;;;;2.75;2.75;;;;;22.52;46.97;100471.03;5056347;28;46759;-52
2021/08/08 03:45:26;;;;;;;;;2.75;2.50;;;;;22.51;46.78;100470.19;5056608;28;45356;-48
2021/08/08 03:47:51;;;;;;;;;3.75;3.50;;;;;22.51;46.81;100480.75;5056382;28;45320;-48
2021/08/08 03:50:16;;;;;;;;;3.75;3.75;;;;;22.51;46.98;100477.25;5056594;28;45245;-47
2021/08/08 03:52:42;;;;;;;;;3.25;3.00;;;;;22.51;46.81;100488.69;5059453;28;45364;-56
2021/08/08 03:55:08;;;;;;;;;7.75;3.00;;;;;22.52;47.04;100484.22;5059809;28;45311;-56
2021/08/08 03:57:33;;;;;;;;;3.50;3.50;;;;;22.51;46.92;100480.75;5059801;28;45374;-50
2021/08/08 03:59:58;;;;;;;;;3.25;3.25;;;;;22.50;46.92;100480.84;5060352;28;45571;-53
2021/08/08 04:02:25;;;;;;;;;4.50;4.50;;;;;22.50;46.57;100484.34;5059550;28;46840;-46
2021/08/08 04:04:50;;;;;;;;;4.00;1.75;;;;;22.51;46.86;100478.13;5059654;28;45348;-50
2021/08/08 04:07:15;;;;;;;;;3.00;3.00;;;;;22.50;46.86;100470.28;5059741;28;45335;-51
2021/08/08 04:09:40;;;;;;;;;2.75;2.75;;;;;22.50;46.84;100484.34;5059910;28;45338;-53
2021/08/08 04:12:07;;;;;;;;;5.50;4.50;;;;;22.51;47.08;100485.19;5041205;28;47510;-50
2021/08/08 04:14:35;;;;;;;;;4.75;3.50;;;;;22.48;46.88;100483.59;5059455;28;45360;-47
2021/08/08 04:17:00;;;;;;;;;5.25;5.25;;;;;22.50;46.62;100491.41;5059708;28;45205;-59
2021/08/08 04:19:26;;;;;;;;;5.50;5.00;;;;;22.49;46.77;100493.22;5059769;28;45672;-52
2021/08/08 04:21:51;;;;;;;;;4.00;4.00;;;;;22.50;47.25;100494.06;5059096;28;50571;-53
2021/08/08 04:24:16;;;;;;;;;5.00;3.25;;;;;22.50;46.65;100499.34;5059414;28;45493;-47
2021/08/08 04:26:42;;;;;;;;;2.00;2.00;;;;;22.50;46.67;100508.13;5059358;28;45461;-57
2021/08/08 04:29:07;;;;;;;;;4.00;4.00;;;;;22.50;46.64;100504.63;5059702;28;45515;-51
2021/08/08 04:31:32;;;;;;;;;3.25;3.25;;;;;22.49;47.06;100509.06;5059195;28;46391;-45
2021/08/08 04:33:58;;;;;;;;;3.00;3.00;;;;;22.48;46.92;100507.38;5059432;28;45277;-49
2021/08/08 04:36:23;;;;;;;;;3.50;3.00;;;;;22.49;47.04;100509.06;5058970;28;50956;-55
2021/08/08 04:38:48;;;;;;;;;2.75;1.25;;;;;22.49;46.76;100511.72;5041221;28;45332;-54
2021/08/08 04:41:14;;;;;;;;;3.00;3.00;;;;;22.49;46.57;100511.72;5058866;28;46122;-58
2021/08/08 04:43:39;;;;;;;;;4.00;4.00;;;;;22.46;46.87;100508.44;5058958;28;45428;-56
2021/08/08 04:46:04;;;;;;;;;5.00;4.50;;;;;22.49;46.50;100514.34;5059117;28;45301;-58
2021/08/08 04:48:30;;;;;;;;;4.75;4.25;;;;;22.49;46.55;100511.72;5059496;28;45545;-63
2021/08/08 04:50:55;;;;;;;;;2.50;2.50;;;;;22.48;46.76;100507.38;5058732;28;45388;-58
2021/08/08 04:53:20;;;;;;;;;3.50;3.50;;;;;22.48;46.60;100520.56;5058923;28;45374;-46
2021/08/08 04:55:46;;;;;;;;;4.50;3.00;;;;;22.47;46.44;100518.88;5058837;28;45450;-51
2021/08/08 04:58:12;;;;;;;;;5.75;3.75;;;;;22.48;46.34;100520.56;5059021;28;45323;-64
2021/08/08 05:00:38;;;;;;;;;6.75;2.50;;;;;22.47;46.44;100521.53;5058671;28;46135;-52
2021/08/08 05:03:03;;;;;;;;;3.00;3.00;;;;;22.47;46.47;100518.06;5058752;28;45220;-49
2021/08/08 05:05:29;;;;;;;;;2.25;2.00;;;;;22.49;46.54;100518.78;5041102;28;45931;-51
2021/08/08 05:07:55;;;;;;;;;2.75;2.75;;;;;22.47;46.19;100518.88;5058950;28;45585;-46
2021/08/08 05:10:24;;;;;;;;;5.75;4.75;;;;;22.48;46.34;100519.75;5058417;28;46832;-48
2021/08/08 05:12:50;;;;;;;;;6.00;4.50;;;;;22.48;46.25;100531.13;5058791;28;45450;-47
2021/08/08 05:15:15;;;;;;;;;4.00;3.75;;;;;22.49;46.31;100524.09;5058490;28;45450;-50
2021/08/08 05:17:41;;;;;;;;;3.75;3.00;;;;;22.48;46.34;100520.56;5058788;28;45595;-53
2021/08/08 05:20:07;;;;;;;;;5.75;3.75;;;;;22.49;46.22;100526.72;5058416;28;46797;-45
2021/08/08 05:22:33;;;;;;;;;3.00;3.00;;;;;22.48;46.28;100523.22;5058780;28;45609;-48
2021/08/08 05:24:58;;;;;;;;;5.00;5.00;;;;;22.47;46.65;100520.69;5058547;28;45645;-52
2021/08/08 05:27:23;;;;;;;;;3.00;3.00;;;;;22.46;46.40;100516.34;5058680;28;45589;-49
2021/08/08 05:29:49;;;;;;;;;6.50;4.00;;;;;22.47;46.24;100520.69;5058170;28;47004;-55
2021/08/08 05:32:14;;;;;;;;;4.75;3.50;;;;;22.47;46.14;100525.97;5058090;28;45332;-45
2021/08/08 05:34:40;;;;;;;;;4.75;3.50;;;;;22.49;46.06;100524.09;5058229;28;45730;-44
2021/08/08 05:37:05;;;;;;;;;2.25;2.00;;;;;22.48;46.07;100520.56;5058863;28;45751;-45
2021/08/08 05:39:30;;;;;;;;;3.50;3.00;;;;;22.48;46.20;100525.84;5058380;28;45622;-45
2021/08/08 05:41:56;;;;;;;;;4.25;3.75;;;;;22.49;46.04;100524.91;5058131;28;45297;-45
2021/08/08 05:44:21;;;;;;;;;5.25;3.00;;;;;22.49;46.12;100530.19;5058170;28;45391;-49
2021/08/08 05:46:46;;;;;;;;;3.75;3.00;;;;;22.50;46.07;100526.59;5040270;28;45467;-60
2021/08/08 05:49:12;;;;;;;;;5.00;4.25;;;;;22.48;45.97;100523.22;5057854;28;46101;-52
2021/08/08 05:51:40;;;;;;;;;4.25;3.00;;;;;22.50;45.75;100520.47;5057927;28;45447;-55
2021/08/08 05:54:05;;;;;;;;;6.50;5.25;;;;;22.50;45.91;100526.59;5058272;28;45422;-54
2021/08/08 05:56:31;;;;;;;;;4.75;3.25;;;;;22.50;45.75;100531.88;5058134;28;45309;-48
2021/08/08 05:58:56;;;;;;;;;7.00;4.00;;;;;22.47;45.86;100532.09;5057780;28;45470;-53
2021/08/08 06:01:21;;;;;;;;;3.75;3.75;;;;;22.47;45.92;100537.38;5057775;28;45317;-58
2021/08/08 06:03:47;;;;;;;;;3.00;3.00;;;;;22.49;45.93;100545.22;5057904;28;45209;-53
2021/08/08 06:06:12;;;;;;;;;3.50;2.75;;;;;22.48;45.98;100544.34;5058101;28;45541;-54
2021/08/08 06:08:37;;;;;;;;;4.00;4.00;;;;;22.50;45.81;100554.78;5057590;28;46191;-46
2021/08/08 06:11:03;;;;;;;;;3.50;3.50;;;;;22.49;46.01;100556.59;5058148;28;45244;-45
2021/08/08 06:13:29;;;;;;;;;4.50;3.75;;;;;22.49;45.84;100555.78;5056982;28;45229;-45
2021/08/08 06:15:54;;;;;;;;;5.00;4.25;;;;;22.50;45.84;100553.00;5057568;28;45515;-51
2021/08/08 06:18:19;;;;;;;;;3.00;3.00;;;;;22.50;45.86;100550.38;5057660;28;46320;-49
2021/08/08 06:20:45;;;;;;;;;5.25;2.75;;;;;22.50;46.03;100542.44;5057460;28;45666;-53
2021/08/08 06:23:10;;;;;;;;;3.00;3.00;;;;;22.51;45.79;100548.56;5057518;28;45302;-53
2021/08/08 06:25:35;;;;;;;;;4.25;2.75;;;;;22.51;45.73;100562.63;5058038;28;45260;-45
2021/08/08 06:28:01;;;;;;;;;6.25;4.25;;;;;22.49;45.97;100561.88;5057270;28;46411;-47
2021/08/08 06:30:26;;;;;;;;;4.50;4.25;;;;;22.49;45.88;100556.59;5057293;28;45236;-49
2021/08/08 06:32:51;;;;;;;;;4.25;3.00;;;;;22.51;45.72;100569.69;5057462;28;45385;-57
2021/08/08 06:35:17;;;;;;;;;4.75;4.50;;;;;22.51;45.59;100561.75;5057325;28;45597;-57
2021/08/08 06:37:43;;;;;;;;;5.25;3.75;;;;;22.50;45.87;100568.84;5057094;28;46177;-53
2021/08/08 06:40:10;;;;;;;;;3.00;3.00;;;;;22.51;45.66;100575.84;5057220;28;45795;-55
2021/08/08 06:42:35;;;;;;;;;3.25;3.00;;;;;22.50;45.75;100568.84;5039631;28;45390;-63
2021/08/08 06:45:01;;;;;;;;;3.25;3.00;;;;;22.52;45.67;100571.38;5057422;28;45479;-63
2021/08/08 06:47:26;;;;;;;;;5.00;4.25;;;;;22.53;45.50;100576.59;5057020;28;46065;-63
2021/08/08 06:49:51;;;;;;;;;5.00;4.00;;;;;22.52;45.58;100580.16;5057095;28;45327;-63
2021/08/08 06:52:17;;;;;;;;;3.75;3.25;;;;;22.53;45.64;100573.06;5057195;28;45375;-49
2021/08/08 06:54:42;;;;;;;;;8.75;2.50;;;;;22.53;45.62;100571.31;5039155;28;45369;-47
2021/08/08 06:57:07;;;;;;;;;4.50;2.50;;;;;22.54;45.65;100570.31;5057042;28;50474;-47
2021/08/08 06:59:38;;;;;;;;;4.00;3.00;;;;;22.53;45.64;100573.94;5056879;28;45225;-49
2021/08/08 07:02:03;;;;;;;;;5.50;4.50;;;;;22.53;45.49;100576.59;5057032;28;45387;-60
2021/08/08 07:04:28;;;;;;;;;3.75;3.75;;;;;22.54;45.66;100586.16;5057022;28;45447;-49
2021/08/08 07:06:54;;;;;;;;;5.50;3.00;;;;;22.55;45.47;100587.88;5056696;28;45253;-54
2021/08/08 07:09:19;;;;;;;;;3.25;3.25;;;;;22.54;45.55;100591.44;5056707;28;45356;-52
2021/08/08 07:11:44;;;;;;;;;3.50;3.50;;;;;22.57;45.55;100594.84;5056944;28;45321;-46
2021/08/08 07:14:10;;;;;;;;;2.00;2.00;;;;;22.57;45.34;100586.91;5057162;28;45316;-44
2021/08/08 07:16:35;;;;;;;;;3.25;3.25;;;;;22.57;45.47;100590.41;5056452;28;46483;-51
2021/08/08 07:19:00;;;;;;;;;4.50;3.50;;;;;22.58;45.69;100594.75;5056800;28;45522;-49
2021/08/08 07:21:26;;;;;;;;;4.25;4.25;;;;;22.60;45.35;100594.63;5056817;28;45830;-46
2021/08/08 07:23:51;;;;;;;;;4.75;3.00;;;;;22.61;45.37;100597.16;5056803;28;45422;-47
2021/08/08 07:26:16;;;;;;;;;6.25;4.50;;;;;22.60;45.47;100603.41;5038367;28;47763;-52
2021/08/08 07:28:42;;;;;;;;;3.50;3.50;;;;;22.63;45.63;100607.66;5056208;28;52929;-48
2021/08/08 07:31:07;;;;;;;;;3.00;2.75;;;;;22.62;45.18;100606.78;5056811;28;45400;-54
2021/08/08 07:33:32;;;;;;;;;4.00;4.00;;;;;22.62;45.26;100609.41;5056805;28;45281;-59
2021/08/08 07:35:58;;;;;;;;;5.50;3.75;;;;;22.64;45.49;100612.81;5056154;28;45363;-53
2021/08/08 07:38:23;;;;;;;;;7.50;2.50;;;;;22.63;45.34;100610.28;5056136;28;45331;-55
2021/08/08 07:40:48;;;;;;;;;4.25;4.00;;;;;22.64;45.18;100617.25;5056393;28;45359;-65
2021/08/08 07:43:14;;;;;;;;;3.00;3.00;;;;;22.63;45.27;100621.69;5056809;28;45304;-62
2021/08/08 07:45:39;;;;;;;;;3.00;3.00;;;;;22.64;45.13;100622.56;5056477;28;46145;-55
2021/08/08 07:48:05;;;;;;;;;4.25;3.00;;;;;22.64;45.36;100617.25;5056210;28;45418;-60
2021/08/08 07:50:31;;;;;;;;;4.00;4.00;;;;;22.62;45.26;100625.28;5056353;28;45474;-49
2021/08/08 07:52:56;;;;;;;;;3.25;3.00;;;;;22.62;45.35;100630.56;5056428;28;45297;-56
2021/08/08 07:55:23;;;;;;;;;4.75;4.25;;;;;22.62;45.33;100624.44;5055927;28;46124;-53
2021/08/08 07:57:48;;;;;;;;;6.00;4.00;;;;;22.63;45.21;100636.69;5055906;28;45297;-44
2021/08/08 08:00:14;;;;;;;;;4.00;3.00;;;;;22.63;45.25;100631.41;5056273;28;45423;-52
2021/08/08 08:02:39;;;;;;;;;4.00;3.25;;;;;22.63;45.31;100634.06;5056654;28;45521;-63
2021/08/08 08:05:05;;;;;;;;;6.00;4.00;;;;;22.63;45.15;100636.69;5055973;28;46307;-50
2021/08/08 08:07:31;;;;;;;;;4.25;4.25;;;;;22.63;44.95;100644.63;5056012;28;45386;-55
2021/08/08 08:09:56;;;;;;;;;3.00;3.00;;;;;22.63;44.85;100644.63;5056179;28;45344;-50
2021/08/08 08:12:21;;;;;;;;;4.00;3.00;;;;;22.62;45.14;100641.13;5056277;28;45352;-52
2021/08/08 08:14:47;;;;;;;;;3.50;3.25;;;;;22.63;45.21;100652.56;5055713;28;45275;-61
2021/08/08 08:17:12;;;;;;;;;3.50;3.00;;;;;22.62;45.08;100648.22;5056167;28;45349;-57
2021/08/08 08:19:37;;;;;;;;;3.50;3.50;;;;;22.62;45.12;100656.97;5056051;28;45241;-60
2021/08/08 08:22:03;;;;;;;;;5.00;4.25;;;;;22.64;45.27;100656.88;5056000;28;45502;-61
2021/08/08 08:24:28;;;;;;;;;4.00;4.00;;;;;22.63;45.37;100661.31;5055712;28;46244;-62
2021/08/08 08:26:54;;;;;;;;;7.00;4.25;;;;;22.64;45.21;100651.59;5037574;28;45774;-52
2021/08/08 08:29:20;;;;;;;;;5.75;4.00;;;;;22.64;45.30;100676.22;5055442;28;48757;-47
2021/08/08 08:31:46;;;;;;;;;3.25;3.00;;;;;22.65;44.92;100671.78;5055911;28;45292;-53
2021/08/08 08:34:11;;;;;;;;;3.75;3.75;;;;;22.67;45.03;100680.44;5055811;28;45638;-59
2021/08/08 08:36:37;;;;;;;;;5.00;5.00;;;;;22.67;44.71;100675.16;5055849;28;45423;-63
2021/08/08 08:39:02;;;;;;;;;6.00;4.75;;;;;22.67;45.23;100675.16;5059330;28;45419;-64
2021/08/08 08:41:30;;;;;;;;;3.00;3.00;;;;;22.67;45.28;100675.16;5059378;28;45490;-54
2021/08/08 08:44:00;;;;;;;;;5.25;3.50;;;;;22.70;45.02;100680.25;5040907;28;48527;-60
2021/08/08 08:46:27;;;;;;;;;3.00;3.00;;;;;22.71;45.02;100681.94;5058963;28;45727;-58
2021/08/08 08:48:53;;;;;;;;;6.00;4.00;;;;;22.73;45.05;100685.31;5059148;28;45469;-47
2021/08/08 08:51:27;;;;;;;;;5.50;5.50;;;;;22.74;45.05;100689.66;5059153;28;45298;-51
2021/08/08 08:53:54;;;;;;;;;5.00;5.00;;;;;22.74;44.93;100676.44;5058652;28;46303;-60
2021/08/08 08:56:20;;;;;;;;;4.75;3.25;;;;;22.76;44.86;100669.28;5058752;28;45798;-53
2021/08/08 08:58:46;;;;;;;;;4.75;4.00;;;;;22.76;44.77;100679.84;5059419;28;45435;-47
2021/08/08 09:01:11;;;;;;;;;3.00;3.00;;;;;22.76;44.87;100673.69;5059356;28;45337;-50
2021/08/08 09:03:36;;;;;;;;;3.25;3.25;;;;;22.77;45.09;100675.38;5058677;28;45437;-49
2021/08/08 09:06:03;;;;;;;;;7.25;3.50;;;;;22.78;44.83;100683.19;5058766;28;45286;-48
2021/08/08 09:08:28;;;;;;;;;4.25;3.00;;;;;22.78;44.66;100699.06;5058860;28;45366;-48
2021/08/08 09:11:20;;;;;;;;;6.75;4.00;;;;;22.80;44.83;100693.69;5058980;28;45203;-47
2021/08/08 09:13:56;;;;;;;;;4.25;2.50;;;;;22.78;44.57;100683.19;5055745;28;46425;-51
2021/08/08 09:16:23;;;;;;;;;5.00;3.25;;;;;22.81;44.74;100696.22;5058340;28;45656;-50
2021/08/08 09:18:50;;;;;;;;;2.00;2.00;;;;;22.81;44.62;100704.16;5058699;28;45238;-47
2021/08/08 09:21:16;;;;;;;;;3.00;3.00;;;;;22.83;44.64;100701.38;5059061;28;45561;-57
2021/08/08 09:23:42;;;;;;;;;5.75;4.00;;;;;22.84;44.63;100693.38;5058809;28;46277;-48
2021/08/08 09:26:07;;;;;;;;;5.00;5.00;;;;;22.86;44.32;100690.63;5058516;28;45389;-61
2021/08/08 09:28:32;;;;;;;;;5.00;4.00;;;;;22.89;44.63;100702.78;5058648;28;45877;-59
2021/08/08 09:30:59;;;;;;;;;4.00;4.00;;;;;22.90;44.37;100701.81;5058657;28;45338;-58
2021/08/08 09:33:25;;;;;;;;;5.00;3.75;;;;;22.91;44.23;100703.50;5058183;28;48529;-64
2021/08/08 09:35:53;;;;;;;;;4.75;4.50;;;;;22.90;43.91;100691.25;5058209;28;45493;-60
2021/08/08 09:38:20;;;;;;;;;5.25;3.00;;;;;22.90;44.01;100701.81;5058453;28;45447;-48
2021/08/08 09:40:59;;;;;;;;;3.00;3.00;;;;;22.92;44.18;100703.44;5058940;28;45346;-46
2021/08/08 09:43:27;;;;;;;;;3.50;3.00;;;;;22.93;43.83;100697.16;5058236;28;46228;-50
2021/08/08 09:45:52;;;;;;;;;5.25;3.75;;;;;22.94;43.62;100695.38;5058175;28;45626;-54
2021/08/08 09:48:18;;;;;;;;;3.25;3.25;;;;;22.95;43.69;100712.94;5057509;28;45707;-45
2021/08/08 09:50:45;;;;;;;;;3.50;2.75;;;;;22.95;43.57;100708.50;5058182;28;45565;-46
2021/08/08 09:53:16;;;;;;;;;4.00;4.00;;;;;22.96;43.97;100712.81;5057929;28;46239;-46
2021/08/08 09:55:42;;;;;;;;;3.75;3.75;;;;;22.98;43.69;100708.28;5057925;28;45481;-45
2021/08/08 09:58:10;;;;;;;;;3.50;2.25;;;;;23.00;43.57;100713.47;5058049;28;45317;-55
2021/08/08 10:00:37;;;;;;;;;5.50;3.00;;;;;23.00;43.95;100716.09;5058290;28;45530;-53
2021/08/08 10:03:08;;;;;;;;;4.25;3.00;;;;;23.01;43.27;100710.72;5057620;28;46684;-53
2021/08/08 10:05:36;;;;;;;;;4.25;3.50;;;;;23.02;43.61;100711.56;5057777;28;45730;-51
2021/08/08 10:08:16;;;;;;;;;4.75;4.25;;;;;23.02;43.36;100719.50;5057811;28;45344;-54
2021/08/08 10:10:46;;;;;;;;;3.50;3.50;;;;;23.03;43.25;100723.00;5058107;28;45538;-59
2021/08/08 10:13:35;;;;;;;;;6.00;4.00;;;;;23.04;43.23;100722.06;5057483;28;47438;-57
2021/08/08 10:16:01;;;;;;;;;4.50;4.00;;;;;23.03;43.21;100720.34;5057349;28;45317;-64
2021/08/08 10:18:32;;;;;;;;;7.25;3.75;;;;;23.02;43.39;100730.06;5057686;28;45434;-49
2021/08/08 10:20:57;;;;;;;;;3.75;3.75;;;;;23.01;43.06;100731.88;5057994;28;45461;-64
2021/08/08 10:23:24;;;;;;;;;4.50;4.50;;;;;23.01;43.20;100728.38;5057461;28;45391;-64
2021/08/08 10:25:51;;;;;;;;;3.25;2.50;;;;;23.02;43.13;100724.78;5039761;28;45355;-57
2021/08/08 10:28:19;;;;;;;;;3.50;3.50;;;;;23.02;42.94;100724.78;5057845;28;45455;-63
2021/08/08 10:30:45;;;;;;;;;4.00;4.00;;;;;23.01;42.85;100718.66;5057607;28;45613;-51
2021/08/08 10:33:11;;;;;;;;;3.00;3.00;;;;;23.05;42.74;100732.50;5057427;28;46340;-54
2021/08/08 10:35:45;;;;;;;;;4.00;2.75;;;;;23.05;43.14;100727.22;5039285;28;45307;-46
2021/08/08 10:38:12;;;;;;;;;3.75;3.75;;;;;23.06;43.14;100725.41;5057561;28;45242;-45
2021/08/08 10:40:40;;;;;;;;;4.00;3.50;;;;;23.06;42.85;100726.28;5057546;28;45272;-45
2021/08/08 10:43:08;;;;;;;;;5.00;4.50;;;;;23.05;42.82;100740.44;5057228;28;46501;-45
2021/08/08 10:45:36;;;;;;;;;5.25;2.50;;;;;23.03;42.88;100734.41;5057300;28;45371;-46
2021/08/08 10:48:06;;;;;;;;;5.00;3.25;;;;;23.04;42.93;100730.81;5057371;28;45321;-45
2021/08/08 10:50:40;;;;;;;;;4.00;2.75;;;;;23.03;42.95;100734.41;5057442;28;45339;-45
2021/08/08 10:53:19;;;;;;;;;5.25;4.50;;;;;23.02;43.09;100732.72;5057044;28;46525;-49
2021/08/08 10:55:44;;;;;;;;;5.25;3.00;;;;;23.03;43.13;100737.06;5057103;28;45660;-53
2021/08/08 10:58:17;;;;;;;;;5.50;3.75;;;;;23.04;42.90;100732.63;5057091;28;45330;-47
2021/08/08 11:00:44;;;;;;;;;4.00;3.00;;;;;23.03;42.87;100731.75;5056980;28;45560;-46
2021/08/08 11:03:15;;;;;;;;;6.25;4.50;;;;;23.04;42.88;100722.88;5056949;28;46180;-50
2021/08/08 11:05:41;;;;;;;;;5.75;4.50;;;;;23.04;43.35;100732.63;5056756;28;45765;-51
2021/08/08 11:08:08;;;;;;;;;2.25;1.50;;;;;23.02;42.95;100708.91;5056950;28;45287;-46
2021/08/08 11:10:38;;;;;;;;;5.25;5.25;;;;;23.06;43.13;100720.13;5056951;28;45304;-52
2021/08/08 11:13:03;;;;;;;;;2.25;2.00;;;;;23.05;42.42;100711.38;5056705;28;46097;-48
2021/08/08 11:15:35;;;;;;;;;2.00;2.00;;;;;23.07;42.61;100725.34;5056553;28;45390;-53
2021/08/08 11:18:01;;;;;;;;;4.00;4.00;;;;;23.08;42.39;100711.16;5056958;28;45241;-54
2021/08/08 11:20:28;;;;;;;;;4.25;3.75;;;;;23.08;42.44;100705.88;5057015;28;45364;-49